createdAt,value
2022-10-01T00:01:17.102Z,3.90
2022-10-01T00:03:44.480Z,3.90
2022-10-01T00:06:17.730Z,3.80
2022-10-01T00:08:49.261Z,3.80
2022-10-01T00:11:21.991Z,3.90
2022-10-01T00:13:48.790Z,3.90
2022-10-01T00:16:26.979Z,3.90
2022-10-01T00:18:54.486Z,4.00
2022-10-01T00:21:30.028Z,4.00
2022-10-01T00:24:03.088Z,4.10
2022-10-01T00:26:32.328Z,4.20
2022-10-01T00:29:02.093Z,4.20
2022-10-01T00:31:29.831Z,4.20
2022-10-01T00:33:58.432Z,4.20
2022-10-01T00:36:26.195Z,4.30
2022-10-01T00:38:53.341Z,4.20
2022-10-01T00:41:20.118Z,4.30
2022-10-01T00:44:25.604Z,4.30
2022-10-01T00:46:54.942Z,4.10
2022-10-01T00:49:27.544Z,4.20
2022-10-01T00:51:58.034Z,4.20
2022-10-01T00:54:33.453Z,4.20
2022-10-01T00:57:01.508Z,4.20
2022-10-01T00:59:29.324Z,4.20
2022-10-01T01:01:56.147Z,4.20
2022-10-01T01:04:22.955Z,4.20
2022-10-01T01:06:57.669Z,4.10
2022-10-01T01:09:37.314Z,4.10
2022-10-01T01:12:30.251Z,4.00
2022-10-01T01:15:11.736Z,4.00
2022-10-01T01:18:22.935Z,4.00
2022-10-01T01:21:09.467Z,4.00
2022-10-01T01:24:03.309Z,4.00
2022-10-01T01:26:51.570Z,4.00
2022-10-01T01:29:35.006Z,3.90
2022-10-01T01:32:14.774Z,3.80
2022-10-01T01:34:45.492Z,3.80
2022-10-01T01:37:15.386Z,3.70
2022-10-01T01:39:46.190Z,3.70
2022-10-01T01:42:22.265Z,3.70
2022-10-01T01:44:53.204Z,3.60
2022-10-01T01:47:23.520Z,3.60
2022-10-01T01:49:52.461Z,3.50
2022-10-01T01:52:19.261Z,3.50
2022-10-01T01:54:49.741Z,3.40
2022-10-01T01:57:18.167Z,3.30
2022-10-01T01:59:45.487Z,3.30
2022-10-01T02:02:35.859Z,3.20
2022-10-01T02:05:09.602Z,3.20
2022-10-01T02:08:00.424Z,3.20
2022-10-01T02:10:45.639Z,3.20
2022-10-01T02:13:35.093Z,3.20
2022-10-01T02:16:14.981Z,3.20
2022-10-01T02:19:03.267Z,3.20
2022-10-01T02:21:50.547Z,3.30
2022-10-01T02:24:17.520Z,3.30
2022-10-01T02:26:47.633Z,3.30
2022-10-01T02:29:18.535Z,3.30
2022-10-01T02:31:47.344Z,3.30
2022-10-01T02:34:20.080Z,3.30
2022-10-01T02:36:48.818Z,3.20
2022-10-01T02:39:18.241Z,3.20
2022-10-01T02:41:48.029Z,3.20
2022-10-01T02:44:22.830Z,3.20
2022-10-01T02:47:04.443Z,3.20
2022-10-01T02:49:32.009Z,3.20
2022-10-01T02:52:08.916Z,3.10
2022-10-01T02:54:58.239Z,3.10
2022-10-01T02:57:29.586Z,3.10
2022-10-01T03:00:03.204Z,3.10
2022-10-01T03:02:31.543Z,3.10
2022-10-01T03:04:59.189Z,3.10
2022-10-01T03:07:27.623Z,3.00
2022-10-01T03:09:54.572Z,3.00
2022-10-01T03:12:21.829Z,3.10
2022-10-01T03:14:48.591Z,3.10
2022-10-01T03:17:16.321Z,3.10
2022-10-01T03:19:43.259Z,3.00
2022-10-01T03:22:12.817Z,3.00
2022-10-01T03:24:39.606Z,3.00
2022-10-01T03:27:06.663Z,3.00
2022-10-01T03:29:33.405Z,3.00
2022-10-01T03:32:00.262Z,3.00
2022-10-01T03:34:27.113Z,3.00
2022-10-01T03:36:53.932Z,2.90
2022-10-01T03:39:20.887Z,2.90
2022-10-01T03:41:47.706Z,2.90
2022-10-01T03:44:14.535Z,3.00
2022-10-01T03:46:41.575Z,3.00
2022-10-01T03:49:08.290Z,3.10
2022-10-01T03:51:37.362Z,3.00
2022-10-01T03:54:05.825Z,3.00
2022-10-01T03:56:33.317Z,3.10
2022-10-01T03:59:00.178Z,3.00
2022-10-01T04:01:27.270Z,3.00
2022-10-01T04:03:54.308Z,3.00
2022-10-01T04:06:21.079Z,2.90
2022-10-01T04:08:48.039Z,3.00
2022-10-01T04:11:15.025Z,3.00
2022-10-01T04:13:41.764Z,3.00
2022-10-01T04:16:08.954Z,3.00
2022-10-01T04:18:36.118Z,3.00
2022-10-01T04:21:03.073Z,3.00
2022-10-01T04:23:29.804Z,3.10
2022-10-01T04:26:05.471Z,3.00
2022-10-01T04:28:32.316Z,3.00
2022-10-01T04:31:17.944Z,3.00
2022-10-01T04:33:45.350Z,3.00
2022-10-01T04:36:12.064Z,3.00
2022-10-01T04:38:38.822Z,3.00
2022-10-01T04:41:05.852Z,3.00
2022-10-01T04:43:32.736Z,3.00
2022-10-01T04:45:59.540Z,3.00
2022-10-01T04:48:26.400Z,3.00
2022-10-01T04:50:53.168Z,3.00
2022-10-01T04:53:19.879Z,3.00
2022-10-01T04:55:46.694Z,3.10
2022-10-01T04:58:13.635Z,3.10
2022-10-01T05:00:40.841Z,3.10
2022-10-01T05:03:07.572Z,3.00
2022-10-01T05:05:35.046Z,3.00
2022-10-01T05:08:02.181Z,3.00
2022-10-01T05:10:29.188Z,3.00
2022-10-01T05:12:56.752Z,3.00
2022-10-01T05:15:23.500Z,3.00
2022-10-01T05:17:50.264Z,3.00
2022-10-01T05:20:19.913Z,3.00
2022-10-01T05:22:47.390Z,3.00
2022-10-01T05:25:14.615Z,3.00
2022-10-01T05:27:41.676Z,3.00
2022-10-01T05:30:10.561Z,3.00
2022-10-01T05:32:37.916Z,3.00
2022-10-01T05:35:07.061Z,3.00
2022-10-01T05:37:34.534Z,3.00
2022-10-01T05:40:01.714Z,3.10
2022-10-01T05:42:28.484Z,3.10
2022-10-01T05:44:56.111Z,3.10
2022-10-01T05:47:23.207Z,3.10
2022-10-01T05:49:49.921Z,3.00
2022-10-01T05:52:16.765Z,3.20
2022-10-01T05:54:43.581Z,3.20
2022-10-01T05:57:10.681Z,3.30
2022-10-01T05:59:37.438Z,3.30
2022-10-01T06:02:04.617Z,3.40
2022-10-01T06:04:31.458Z,3.50
2022-10-01T06:06:58.261Z,3.60
2022-10-01T06:09:25.228Z,3.60
2022-10-01T06:11:51.964Z,3.70
2022-10-01T06:14:18.943Z,3.70
2022-10-01T06:16:46.923Z,3.80
2022-10-01T06:19:13.956Z,3.80
2022-10-01T06:21:40.673Z,3.90
2022-10-01T06:24:07.483Z,3.90
2022-10-01T06:26:34.209Z,4.00
2022-10-01T06:29:02.642Z,4.00
2022-10-01T06:31:30.072Z,4.10
2022-10-01T06:33:56.843Z,4.20
2022-10-01T06:36:23.544Z,4.30
2022-10-01T06:38:50.343Z,4.30
2022-10-01T06:41:17.056Z,4.40
2022-10-01T06:43:44.090Z,4.40
2022-10-01T06:46:11.263Z,4.50
2022-10-01T06:48:38.068Z,4.60
2022-10-01T06:51:05.779Z,4.60
2022-10-01T06:53:32.632Z,4.70
2022-10-01T06:56:04.843Z,4.80
2022-10-01T06:58:31.713Z,4.90
2022-10-01T07:01:01.456Z,5.00
2022-10-01T07:03:28.453Z,5.00
2022-10-01T07:06:02.231Z,5.10
2022-10-01T07:08:29.043Z,5.30
2022-10-01T07:11:03.343Z,5.40
2022-10-01T07:13:30.191Z,5.60
2022-10-01T07:15:57.176Z,5.70
2022-10-01T07:18:23.965Z,5.80
2022-10-01T07:20:50.723Z,5.80
2022-10-01T07:23:17.958Z,5.90
2022-10-01T07:25:45.631Z,6.00
2022-10-01T07:28:17.823Z,6.20
2022-10-01T07:31:14.977Z,6.30
2022-10-01T07:33:42.028Z,6.50
2022-10-01T07:36:11.292Z,6.70
2022-10-01T07:38:38.012Z,6.80
2022-10-01T07:41:04.999Z,6.80
2022-10-01T07:43:34.161Z,7.00
2022-10-01T07:46:02.008Z,7.20
2022-10-01T07:48:28.800Z,7.30
2022-10-01T07:50:56.476Z,7.40
2022-10-01T07:53:24.052Z,7.40
2022-10-01T07:55:50.802Z,7.50
2022-10-01T07:58:18.701Z,7.50
2022-10-01T08:00:45.532Z,7.60
2022-10-01T08:03:12.410Z,7.70
2022-10-01T08:05:41.430Z,7.70
2022-10-01T08:08:08.752Z,7.70
2022-10-01T08:10:37.917Z,7.80
2022-10-01T08:13:14.481Z,7.90
2022-10-01T08:15:42.793Z,7.90
2022-10-01T08:18:10.955Z,7.90
2022-10-01T08:20:41.799Z,7.90
2022-10-01T08:23:11.300Z,8.00
2022-10-01T08:25:38.534Z,7.90
2022-10-01T08:28:06.528Z,8.00
2022-10-01T08:30:33.643Z,8.00
2022-10-01T08:33:01.903Z,8.00
2022-10-01T08:35:30.181Z,8.00
2022-10-01T08:38:06.735Z,8.00
2022-10-01T08:40:36.839Z,8.10
2022-10-01T08:43:16.494Z,8.00
2022-10-01T08:45:49.240Z,8.10
2022-10-01T08:48:56.851Z,8.10
2022-10-01T08:51:32.790Z,8.10
2022-10-01T08:54:11.841Z,8.10
2022-10-01T08:56:45.279Z,8.10
2022-10-01T08:59:40.975Z,8.20
2022-10-01T09:02:21.674Z,8.20
2022-10-01T09:04:51.485Z,8.20
2022-10-01T09:07:49.613Z,8.20
2022-10-01T09:10:31.729Z,8.20
2022-10-01T09:13:27.785Z,8.20
2022-10-01T09:16:24.299Z,8.20
2022-10-01T09:18:58.821Z,8.20
2022-10-01T09:21:36.778Z,8.30
2022-10-01T09:24:15.603Z,8.30
2022-10-01T09:26:46.630Z,8.40
2022-10-01T09:29:35.661Z,8.40
2022-10-01T09:32:05.947Z,8.50
2022-10-01T09:34:40.194Z,8.60
2022-10-01T09:37:18.815Z,8.50
2022-10-01T09:40:04.983Z,8.60
2022-10-01T09:42:32.127Z,8.60
2022-10-01T09:44:59.599Z,8.60
2022-10-01T09:47:26.531Z,8.50
2022-10-01T09:49:53.271Z,8.60
2022-10-01T09:52:34.541Z,8.70
2022-10-01T09:55:27.203Z,8.70
2022-10-01T09:57:58.023Z,8.80
2022-10-01T10:00:27.005Z,8.80
2022-10-01T10:02:55.513Z,8.90
2022-10-01T10:05:30.341Z,8.90
2022-10-01T10:08:05.934Z,8.90
2022-10-01T10:10:35.785Z,9.00
2022-10-01T10:13:11.340Z,8.90
2022-10-01T10:15:49.513Z,9.00
2022-10-01T10:18:22.969Z,9.00
2022-10-01T10:20:53.930Z,9.00
2022-10-01T10:23:23.197Z,9.00
2022-10-01T10:26:00.817Z,9.10
2022-10-01T10:28:29.668Z,9.10
2022-10-01T10:30:57.932Z,9.10
2022-10-01T10:33:26.373Z,9.00
2022-10-01T10:36:06.733Z,9.10
2022-10-01T10:38:34.916Z,9.00
2022-10-01T10:41:03.846Z,9.10
2022-10-01T10:43:37.963Z,9.10
2022-10-01T10:46:07.118Z,9.10
2022-10-01T10:48:43.895Z,9.10
2022-10-01T10:51:10.684Z,9.10
2022-10-01T10:53:45.366Z,9.20
2022-10-01T10:56:22.625Z,9.20
2022-10-01T10:58:51.374Z,9.20
2022-10-01T11:01:26.962Z,9.20
2022-10-01T11:03:57.417Z,9.20
2022-10-01T11:06:24.413Z,9.20
2022-10-01T11:09:00.493Z,9.20
2022-10-01T11:11:51.175Z,9.20
2022-10-01T11:14:42.071Z,9.20
2022-10-01T11:17:56.864Z,9.20
2022-10-01T11:20:32.290Z,9.20
2022-10-01T11:22:58.968Z,9.30
2022-10-01T11:25:31.391Z,9.30
2022-10-01T11:28:26.968Z,9.40
2022-10-01T11:31:12.071Z,9.40
2022-10-01T11:34:14.379Z,9.50
2022-10-01T11:37:10.676Z,9.50
2022-10-01T11:39:42.411Z,9.50
2022-10-01T11:42:22.118Z,9.70
2022-10-01T11:45:04.209Z,9.80
2022-10-01T11:47:41.678Z,9.80
2022-10-01T11:50:25.377Z,9.90
2022-10-01T11:53:04.745Z,9.80
2022-10-01T11:55:59.791Z,9.90
2022-10-01T11:58:50.820Z,9.80
2022-10-01T12:01:46.273Z,9.80
2022-10-01T12:04:32.442Z,9.70
2022-10-01T12:07:26.746Z,9.70
2022-10-01T12:09:53.577Z,9.70
2022-10-01T12:12:28.880Z,9.60
2022-10-01T12:15:28.626Z,9.70
2022-10-01T12:18:15.716Z,9.70
2022-10-01T12:20:47.588Z,9.70
2022-10-01T12:23:18.776Z,9.70
2022-10-01T12:25:49.028Z,9.70
2022-10-01T12:28:27.619Z,9.60
2022-10-01T12:31:05.158Z,9.60
2022-10-01T12:33:43.772Z,9.60
2022-10-01T12:36:26.318Z,9.70
2022-10-01T12:39:13.307Z,9.60
2022-10-01T12:41:41.068Z,9.60
2022-10-01T12:44:13.839Z,9.60
2022-10-01T12:46:47.398Z,9.70
2022-10-01T12:49:42.090Z,9.70
2022-10-01T12:52:34.694Z,9.70
2022-10-01T12:55:34.276Z,9.80
2022-10-01T12:58:17.917Z,9.80
2022-10-01T13:00:55.827Z,9.80
2022-10-01T13:03:25.514Z,9.80
2022-10-01T13:06:14.748Z,9.80
2022-10-01T13:09:08.499Z,9.90
2022-10-01T13:11:54.370Z,9.90
2022-10-01T13:14:22.560Z,10.00
2022-10-01T13:16:58.845Z,10.00
2022-10-01T13:19:48.100Z,10.00
2022-10-01T13:22:47.636Z,10.00
2022-10-01T13:25:33.119Z,10.10
2022-10-01T13:28:36.244Z,10.20
2022-10-01T13:31:13.058Z,10.20
2022-10-01T13:33:39.852Z,10.50
2022-10-01T13:36:08.254Z,10.70
2022-10-01T13:38:37.764Z,11.10
2022-10-01T13:41:23.935Z,11.60
2022-10-01T13:44:14.989Z,12.00
2022-10-01T13:46:59.153Z,12.40
2022-10-01T13:49:30.780Z,12.90
2022-10-01T13:51:58.303Z,13.10
2022-10-01T13:54:39.878Z,13.00
2022-10-01T13:57:11.536Z,12.70
2022-10-01T13:59:38.804Z,12.90
2022-10-01T14:03:00.401Z,13.10
2022-10-01T14:05:36.599Z,13.50
2022-10-01T14:08:26.053Z,13.60
2022-10-01T14:11:34.292Z,13.90
2022-10-01T14:14:30.611Z,13.80
2022-10-01T14:16:58.855Z,13.50
2022-10-01T14:19:27.664Z,13.30
2022-10-01T14:22:03.636Z,13.60
2022-10-01T14:24:57.537Z,13.50
2022-10-01T14:27:29.996Z,13.20
2022-10-01T14:30:13.532Z,13.20
2022-10-01T14:32:51.000Z,13.10
2022-10-01T14:35:39.129Z,13.00
2022-10-01T14:38:13.866Z,12.90
2022-10-01T14:40:43.444Z,12.90
2022-10-01T14:43:25.403Z,12.80
2022-10-01T14:45:56.802Z,12.80
2022-10-01T14:48:25.643Z,12.80
2022-10-01T14:50:57.835Z,12.70
2022-10-01T14:53:27.921Z,12.70
2022-10-01T14:55:58.041Z,12.70
2022-10-01T14:58:31.879Z,12.60
2022-10-01T15:01:00.336Z,12.60
2022-10-01T15:03:35.445Z,12.60
2022-10-01T15:06:05.340Z,12.60
2022-10-01T15:08:47.728Z,12.60
2022-10-01T15:11:19.793Z,12.60
2022-10-01T15:13:49.457Z,12.70
2022-10-01T15:16:19.219Z,12.80
2022-10-01T15:18:50.172Z,12.80
2022-10-01T15:21:22.930Z,12.80
2022-10-01T15:23:50.385Z,12.90
2022-10-01T15:26:23.076Z,12.80
2022-10-01T15:28:49.901Z,12.70
2022-10-01T15:31:17.265Z,12.60
2022-10-01T15:33:44.526Z,12.60
2022-10-01T15:36:18.191Z,12.60
2022-10-01T15:38:48.958Z,12.60
2022-10-01T15:41:33.144Z,12.60
2022-10-01T15:44:05.355Z,12.50
2022-10-01T15:46:35.120Z,12.40
2022-10-01T15:49:20.735Z,12.40
2022-10-01T15:52:12.295Z,12.30
2022-10-01T15:54:42.329Z,12.20
2022-10-01T15:57:15.609Z,12.30
2022-10-01T15:59:42.385Z,12.30
2022-10-01T16:02:16.227Z,12.20
2022-10-01T16:04:42.985Z,12.20
2022-10-01T16:07:22.615Z,12.10
2022-10-01T16:09:56.058Z,12.20
2022-10-01T16:12:23.324Z,12.20
2022-10-01T16:15:01.878Z,12.10
2022-10-01T16:17:38.014Z,12.00
2022-10-01T16:20:45.588Z,12.00
2022-10-01T16:23:39.815Z,12.00
2022-10-01T16:26:28.429Z,12.00
2022-10-01T16:29:04.503Z,12.00
2022-10-01T16:31:31.948Z,11.80
2022-10-01T16:33:58.824Z,11.80
2022-10-01T16:36:26.372Z,11.80
2022-10-01T16:38:53.589Z,11.80
2022-10-01T16:41:23.112Z,11.70
2022-10-01T16:43:51.397Z,11.70
2022-10-01T16:46:18.173Z,11.70
2022-10-01T16:48:48.004Z,11.70
2022-10-01T16:51:14.807Z,11.60
2022-10-01T16:53:42.902Z,11.60
2022-10-01T16:56:10.838Z,11.60
2022-10-01T16:58:41.730Z,11.70
2022-10-01T17:01:10.095Z,11.70
2022-10-01T17:03:36.857Z,11.70
2022-10-01T17:06:03.718Z,11.70
2022-10-01T17:08:30.518Z,11.70
2022-10-01T17:11:00.240Z,11.70
2022-10-01T17:13:34.995Z,11.60
2022-10-01T17:16:02.273Z,11.50
2022-10-01T17:18:29.109Z,11.50
2022-10-01T17:20:56.269Z,11.50
2022-10-01T17:23:23.664Z,11.40
2022-10-01T17:25:50.847Z,11.50
2022-10-01T17:28:20.203Z,11.50
2022-10-01T17:30:48.465Z,11.60
2022-10-01T17:33:19.137Z,11.60
2022-10-01T17:35:51.653Z,11.70
2022-10-01T17:38:19.454Z,11.60
2022-10-01T17:40:46.658Z,11.50
2022-10-01T17:43:15.260Z,11.60
2022-10-01T17:45:43.013Z,11.70
2022-10-01T17:48:12.357Z,11.70
2022-10-01T17:50:43.540Z,11.70
2022-10-01T17:53:11.399Z,11.70
2022-10-01T17:55:42.500Z,11.60
2022-10-01T17:58:09.958Z,11.60
2022-10-01T18:00:37.238Z,11.50
2022-10-01T18:03:04.454Z,11.60
2022-10-01T18:05:31.433Z,11.60
2022-10-01T18:07:58.135Z,11.50
2022-10-01T18:10:24.988Z,11.40
2022-10-01T18:12:51.719Z,11.40
2022-10-01T18:15:20.730Z,11.40
2022-10-01T18:17:52.003Z,11.40
2022-10-01T18:20:20.628Z,11.40
2022-10-01T18:22:47.552Z,11.40
2022-10-01T18:25:16.052Z,11.30
2022-10-01T18:27:43.555Z,11.40
2022-10-01T18:30:10.833Z,11.40
2022-10-01T18:32:44.751Z,11.40
2022-10-01T18:35:26.976Z,11.40
2022-10-01T18:37:57.878Z,11.40
2022-10-01T18:40:34.633Z,11.40
2022-10-01T18:43:15.987Z,11.40
2022-10-01T18:45:45.594Z,11.30
2022-10-01T18:48:38.615Z,11.30
2022-10-01T18:51:17.405Z,11.30
2022-10-01T18:54:08.832Z,11.20
2022-10-01T18:56:37.421Z,11.20
2022-10-01T18:59:22.178Z,11.20
2022-10-01T19:02:20.979Z,11.20
2022-10-01T19:05:07.687Z,11.10
2022-10-01T19:07:46.546Z,11.10
2022-10-01T19:10:22.888Z,11.00
2022-10-01T19:13:03.152Z,11.00
2022-10-01T19:16:02.181Z,11.00
2022-10-01T19:18:37.884Z,11.00
2022-10-01T19:21:13.761Z,11.10
2022-10-01T19:24:01.742Z,11.10
2022-10-01T19:26:31.110Z,11.10
2022-10-01T19:29:19.655Z,11.10
2022-10-01T19:31:56.235Z,11.00
2022-10-01T19:34:48.295Z,11.00
2022-10-01T19:37:33.745Z,11.00
2022-10-01T19:40:14.639Z,11.00
2022-10-01T19:42:47.611Z,11.00
2022-10-01T19:45:25.666Z,11.00
2022-10-01T19:48:07.921Z,11.10
2022-10-01T19:50:39.618Z,11.10
2022-10-01T19:53:21.473Z,11.00
2022-10-01T19:55:51.517Z,11.00
2022-10-01T19:58:20.414Z,10.90
2022-10-01T20:00:52.571Z,10.90
2022-10-01T20:03:39.585Z,11.00
2022-10-01T20:06:37.682Z,10.90
2022-10-01T20:09:34.579Z,10.90
2022-10-01T20:12:16.232Z,10.90
2022-10-01T20:15:10.415Z,10.80
2022-10-01T20:17:47.790Z,10.90
2022-10-01T20:20:50.832Z,10.90
2022-10-01T20:23:45.263Z,10.90
2022-10-01T20:26:21.164Z,10.90
2022-10-01T20:29:18.402Z,10.90
2022-10-01T20:32:10.548Z,10.90
2022-10-01T20:34:42.036Z,11.00
2022-10-01T20:37:22.884Z,10.90
2022-10-01T20:39:59.883Z,10.90
2022-10-01T20:42:35.499Z,10.90
2022-10-01T20:45:04.444Z,10.90
2022-10-01T20:47:40.385Z,10.90
2022-10-01T20:50:19.298Z,11.00
2022-10-01T20:53:03.928Z,11.00
2022-10-01T20:55:45.319Z,11.00
2022-10-01T20:58:19.296Z,11.00
2022-10-01T21:00:47.771Z,10.90
2022-10-01T21:03:32.071Z,10.90
2022-10-01T21:06:04.782Z,10.90
2022-10-01T21:08:47.452Z,10.90
2022-10-01T21:11:19.736Z,11.00
2022-10-01T21:14:00.592Z,11.00
2022-10-01T21:16:56.760Z,11.00
2022-10-01T21:19:29.240Z,11.10
2022-10-01T21:22:33.279Z,11.00
2022-10-01T21:25:26.890Z,11.00
2022-10-01T21:28:31.427Z,11.00
2022-10-01T21:31:34.461Z,11.10
2022-10-01T21:34:26.284Z,11.00
2022-10-01T21:37:03.844Z,10.90
2022-10-01T21:39:38.155Z,10.90
2022-10-01T21:42:13.905Z,11.00
2022-10-01T21:45:07.680Z,11.00
2022-10-01T21:48:01.550Z,11.10
2022-10-01T21:50:44.465Z,11.10
2022-10-01T21:53:29.068Z,11.10
2022-10-01T21:56:26.485Z,11.10
2022-10-01T21:58:53.147Z,11.10
2022-10-01T22:01:41.188Z,11.00
2022-10-01T22:04:16.581Z,11.10
2022-10-01T22:06:53.176Z,11.00
2022-10-01T22:09:43.201Z,11.00
2022-10-01T22:12:11.738Z,11.00
2022-10-01T22:14:40.405Z,11.00
2022-10-01T22:17:17.605Z,11.00
2022-10-01T22:19:51.110Z,11.00
2022-10-01T22:22:25.718Z,11.10
2022-10-01T22:24:53.587Z,11.10
2022-10-01T22:27:44.190Z,11.10
2022-10-01T22:30:17.677Z,11.10
2022-10-01T22:32:51.470Z,11.10
2022-10-01T22:35:38.535Z,11.10
2022-10-01T22:38:26.363Z,11.10
2022-10-01T22:41:36.407Z,11.00
2022-10-01T22:44:15.372Z,11.10
2022-10-01T22:46:51.346Z,11.00
2022-10-01T22:49:33.958Z,11.00
2022-10-01T22:52:01.701Z,11.10
2022-10-01T22:54:59.365Z,11.10
2022-10-01T22:57:28.923Z,11.10
2022-10-01T23:00:10.921Z,11.10
2022-10-01T23:02:48.193Z,11.10
2022-10-01T23:05:33.689Z,11.20
2022-10-01T23:08:06.115Z,11.20
2022-10-01T23:10:41.780Z,11.30
2022-10-01T23:13:33.875Z,11.20
2022-10-01T23:16:00.719Z,11.20
2022-10-01T23:18:57.455Z,11.20
2022-10-01T23:21:45.292Z,11.20
2022-10-01T23:24:29.688Z,11.30
2022-10-01T23:27:23.302Z,11.20
2022-10-01T23:30:11.586Z,11.20
2022-10-01T23:33:16.463Z,11.20
2022-10-01T23:35:51.897Z,11.20
2022-10-01T23:38:39.748Z,11.30
2022-10-01T23:41:18.985Z,11.20
2022-10-01T23:43:48.438Z,11.20
2022-10-01T23:46:17.599Z,11.20
2022-10-01T23:48:53.109Z,11.30
2022-10-01T23:51:27.488Z,11.30
2022-10-01T23:53:57.000Z,11.30
2022-10-01T23:56:49.189Z,11.30
2022-10-01T23:59:19.241Z,11.20
